createdAt,value
2019-02-14T00:01:56.074Z,100937.34
2019-02-14T00:04:25.403Z,100943.03
2019-02-14T00:06:54.715Z,100946.34
2019-02-14T00:09:24.031Z,100950.63
2019-02-14T00:11:53.345Z,100960.16
2019-02-14T00:14:22.647Z,100960.62
2019-02-14T00:16:51.148Z,100962.25
2019-02-14T00:19:19.755Z,100962.72
2019-02-14T00:21:48.268Z,100957.03
2019-02-14T00:27:19.568Z,100953.45
2019-02-14T00:29:48.871Z,100956.86
2019-02-14T00:32:18.316Z,100949.81
2019-02-14T00:34:47.692Z,100950.53
2019-02-14T00:37:17.577Z,100959.05
2019-02-14T00:43:11.974Z,100947.34
2019-02-14T00:46:12.327Z,100953.19
2019-02-14T00:48:40.946Z,100944.92
2019-02-14T00:51:09.351Z,100942.82
2019-02-14T00:53:38.666Z,100938.13
2019-02-14T00:56:07.970Z,100943.66
2019-02-14T00:58:37.269Z,100933.02
2019-02-14T01:01:06.576Z,100927.91
2019-02-14T01:03:35.874Z,100927.38
2019-02-14T01:06:05.182Z,100924.36
2019-02-14T01:08:33.696Z,100924.52
2019-02-14T01:11:02.200Z,100917.89
2019-02-14T01:16:33.066Z,100924.39
2019-02-14T01:19:01.678Z,100921.57
2019-02-14T01:21:30.985Z,100915.18
2019-02-14T01:24:00.328Z,100916.09
2019-02-14T01:26:29.622Z,100911.30
2019-02-14T01:28:58.137Z,100921.20
2019-02-14T01:31:26.638Z,100914.51
2019-02-14T01:37:48.205Z,100908.09
2019-02-14T01:40:55.602Z,100908.94
2019-02-14T01:43:24.038Z,100895.63
2019-02-14T01:48:54.466Z,100899.31
2019-02-14T01:51:23.888Z,100899.48
2019-02-14T01:53:53.223Z,100900.77
2019-02-14T01:56:22.535Z,100902.04
2019-02-14T01:58:51.037Z,100900.26
2019-02-14T02:01:20.415Z,100899.00
2019-02-14T02:03:49.722Z,100906.62
2019-02-14T02:06:18.229Z,100899.25
2019-02-14T02:08:46.730Z,100893.84
2019-02-14T02:11:16.037Z,100895.91
2019-02-14T02:13:45.354Z,100889.50
2019-02-14T02:16:14.739Z,100891.70
2019-02-14T02:18:44.082Z,100890.47
2019-02-14T02:21:13.503Z,100896.92
2019-02-14T02:23:42.810Z,100895.31
2019-02-14T02:26:12.113Z,100891.08
2019-02-14T02:28:41.445Z,100892.92
2019-02-14T02:31:10.748Z,100891.19
2019-02-14T02:33:39.399Z,100895.05
2019-02-14T02:36:08.703Z,100894.62
2019-02-14T02:38:38.011Z,100896.79
2019-02-14T02:41:07.351Z,100892.17
2019-02-14T02:43:36.646Z,100894.28
2019-02-14T02:46:05.959Z,100892.98
2019-02-14T02:48:35.286Z,100896.86
2019-02-14T02:51:04.602Z,100898.23
2019-02-14T02:53:33.905Z,100893.03
2019-02-14T02:56:03.266Z,100900.81
2019-02-14T02:58:31.773Z,100908.58
2019-02-14T03:01:00.166Z,100901.62
2019-02-14T03:03:28.743Z,100901.21
2019-02-14T03:05:58.099Z,100900.36
2019-02-14T03:08:27.431Z,100908.17
2019-02-14T03:10:56.800Z,100899.45
2019-02-14T03:13:25.311Z,100907.25
2019-02-14T03:15:54.625Z,100909.62
2019-02-14T03:18:23.124Z,100909.06
2019-02-14T03:20:51.649Z,100908.75
2019-02-14T03:23:20.165Z,100907.86
2019-02-14T03:25:49.480Z,100905.03
2019-02-14T03:28:18.781Z,100906.34
2019-02-14T03:30:48.106Z,100904.95
2019-02-14T03:33:16.605Z,100902.75
2019-02-14T03:35:45.919Z,100909.38
2019-02-14T03:38:14.335Z,100902.33
2019-02-14T03:40:43.647Z,100897.62
2019-02-14T03:43:12.965Z,100901.05
2019-02-14T03:45:41.383Z,100901.48
2019-02-14T03:48:10.698Z,100898.73
2019-02-14T03:50:40.005Z,100899.73
2019-02-14T03:53:09.315Z,100900.61
2019-02-14T03:55:38.636Z,100890.75
2019-02-14T03:58:07.964Z,100888.56
2019-02-14T04:00:37.272Z,100882.53
2019-02-14T04:03:06.580Z,100884.70
2019-02-14T04:05:35.086Z,100886.88
2019-02-14T04:08:04.395Z,100878.74
2019-02-14T04:10:33.014Z,100877.87
2019-02-14T04:13:01.529Z,100873.57
2019-02-14T04:15:30.853Z,100878.28
2019-02-14T04:18:00.169Z,100886.45
2019-02-14T04:20:29.495Z,100889.95
2019-02-14T04:22:58.811Z,100891.67
2019-02-14T04:25:27.350Z,100883.52
2019-02-14T04:27:55.960Z,100883.05
2019-02-14T04:30:24.467Z,100867.45
2019-02-14T04:32:53.773Z,100871.33
2019-02-14T04:35:23.089Z,100874.27
2019-02-14T04:37:52.401Z,100873.05
2019-02-14T04:40:21.711Z,100863.92
2019-02-14T04:42:51.041Z,100857.45
2019-02-14T04:45:20.347Z,100868.57
2019-02-14T04:47:49.664Z,100869.05
2019-02-14T04:50:18.971Z,100869.84
2019-02-14T04:52:47.466Z,100865.53
2019-02-14T04:55:15.965Z,100863.80
2019-02-14T04:57:45.269Z,100866.33
2019-02-14T05:00:14.706Z,100871.14
2019-02-14T05:02:44.024Z,100863.73
2019-02-14T05:05:12.638Z,100863.78
2019-02-14T05:07:42.059Z,100861.56
2019-02-14T05:10:11.603Z,100861.84
2019-02-14T05:12:40.915Z,100861.55
2019-02-14T05:15:10.543Z,100859.67
2019-02-14T05:17:38.972Z,100854.05
2019-02-14T05:20:08.211Z,100856.72
2019-02-14T05:22:36.819Z,100853.23
2019-02-14T05:25:06.405Z,100855.95
2019-02-14T05:27:35.722Z,100858.55
2019-02-14T05:30:05.906Z,100858.22
2019-02-14T05:32:35.226Z,100862.62
2019-02-14T05:35:04.999Z,100858.13
2019-02-14T05:37:34.310Z,100860.42
2019-02-14T05:40:03.061Z,100867.45
2019-02-14T05:42:31.568Z,100868.58
2019-02-14T05:45:00.228Z,100878.88
2019-02-14T05:47:29.599Z,100870.46
2019-02-14T05:49:58.911Z,100865.70
2019-02-14T05:52:28.239Z,100870.27
2019-02-14T05:54:57.566Z,100863.72
2019-02-14T05:57:27.475Z,100867.15
2019-02-14T06:03:12.158Z,100867.78
2019-02-14T06:05:41.526Z,100864.44
2019-02-14T06:08:10.840Z,100858.74
2019-02-14T06:10:40.162Z,100857.92
2019-02-14T06:13:09.469Z,100871.45
2019-02-14T06:15:38.789Z,100866.75
2019-02-14T06:18:08.104Z,100868.44
2019-02-14T06:20:37.469Z,100864.23
2019-02-14T06:23:06.806Z,100862.89
2019-02-14T06:25:36.131Z,100860.82
2019-02-14T06:28:04.637Z,100870.19
2019-02-14T06:30:33.194Z,100873.78
2019-02-14T06:33:02.654Z,100879.06
2019-02-14T06:35:32.279Z,100875.55
2019-02-14T06:38:01.607Z,100875.21
2019-02-14T06:40:30.937Z,100879.52
2019-02-14T06:43:00.273Z,100883.38
2019-02-14T06:45:29.592Z,100888.63
2019-02-14T06:47:58.932Z,100875.74
2019-02-14T06:50:34.563Z,100880.51
2019-02-14T06:53:17.438Z,100887.86
2019-02-14T06:55:45.967Z,100883.96
2019-02-14T06:58:14.384Z,100887.86
2019-02-14T07:00:43.003Z,100875.69
2019-02-14T07:03:12.315Z,100877.53
2019-02-14T07:05:40.977Z,100871.89
2019-02-14T07:08:09.487Z,100875.35
2019-02-14T07:10:38.010Z,100874.53
2019-02-14T07:13:07.357Z,100865.88
2019-02-14T07:15:36.712Z,100866.35
2019-02-14T07:18:05.268Z,100861.16
2019-02-14T07:20:33.886Z,100860.74
2019-02-14T07:23:03.303Z,100859.03
2019-02-14T07:25:31.916Z,100865.54
2019-02-14T07:28:01.234Z,100853.41
2019-02-14T07:30:30.560Z,100852.55
2019-02-14T07:32:59.902Z,100843.03
2019-02-14T07:35:28.541Z,100838.27
2019-02-14T07:37:58.097Z,100846.48
2019-02-14T07:40:27.402Z,100837.83
2019-02-14T07:42:56.875Z,100841.73
2019-02-14T07:45:26.164Z,100841.72
2019-02-14T07:47:54.672Z,100837.34
2019-02-14T07:50:24.012Z,100829.98
2019-02-14T07:52:53.352Z,100840.39
2019-02-14T07:55:22.695Z,100825.16
2019-02-14T07:57:51.322Z,100821.67
2019-02-14T08:00:20.700Z,100820.32
2019-02-14T08:02:50.133Z,100827.64
2019-02-14T08:05:18.699Z,100815.92
2019-02-14T08:07:48.257Z,100820.63
2019-02-14T08:10:17.681Z,100821.87
2019-02-14T08:12:47.287Z,100816.70
2019-02-14T08:15:16.606Z,100821.80
2019-02-14T08:17:45.913Z,100821.80
2019-02-14T08:20:15.276Z,100811.66
2019-02-14T08:22:44.619Z,100816.39
2019-02-14T08:25:13.926Z,100805.09
2019-02-14T08:27:42.537Z,100808.91
2019-02-14T08:30:12.793Z,100802.38
2019-02-14T08:32:41.300Z,100809.28
2019-02-14T08:35:10.610Z,100809.14
2019-02-14T08:37:45.695Z,100809.58
2019-02-14T08:40:29.383Z,100808.67
2019-02-14T08:42:58.906Z,100802.92
2019-02-14T08:45:28.275Z,100803.57
2019-02-14T08:47:57.598Z,100792.79
2019-02-14T08:50:26.934Z,100801.41
2019-02-14T08:52:55.464Z,100794.94
2019-02-14T08:55:23.886Z,100784.31
2019-02-14T08:57:52.423Z,100789.42
2019-02-14T09:00:21.857Z,100790.67
2019-02-14T09:02:51.252Z,100797.63
2019-02-14T09:05:20.663Z,100784.93
2019-02-14T09:07:54.715Z,100775.39
2019-02-14T09:13:23.730Z,100771.85
2019-02-14T09:18:35.702Z,100776.73
2019-02-14T09:21:04.227Z,100770.51
2019-02-14T09:23:32.810Z,100765.81
2019-02-14T09:26:02.481Z,100766.52
2019-02-14T09:28:31.160Z,100761.23
2019-02-14T09:30:59.850Z,100765.14
2019-02-14T09:33:28.480Z,100755.09
2019-02-14T09:35:57.187Z,100747.08
2019-02-14T09:38:25.835Z,100744.31
2019-02-14T09:43:56.580Z,100739.33
2019-02-14T09:46:25.095Z,100737.67
2019-02-14T09:48:53.641Z,100731.09
2019-02-14T09:51:22.152Z,100725.08
2019-02-14T09:53:50.583Z,100726.50
2019-02-14T09:59:21.859Z,100713.22
2019-02-14T10:01:51.282Z,100705.94
2019-02-14T10:04:20.690Z,100700.05
2019-02-14T10:06:49.307Z,100695.30
2019-02-14T10:09:17.902Z,100692.58
2019-02-14T10:11:47.228Z,100688.27
2019-02-14T10:14:16.530Z,100682.80
2019-02-14T10:16:45.848Z,100686.38
2019-02-14T10:19:15.211Z,100677.52
2019-02-14T10:21:43.815Z,100662.63
2019-02-14T10:24:13.276Z,100669.50
2019-02-14T10:26:42.602Z,100659.05
2019-02-14T10:29:11.123Z,100663.42
2019-02-14T10:31:39.635Z,100663.41
2019-02-14T10:36:51.153Z,100656.16
2019-02-14T10:39:19.667Z,100659.43
2019-02-14T10:41:48.985Z,100653.11
2019-02-14T10:44:18.326Z,100650.26
2019-02-14T10:46:47.639Z,100656.22
2019-02-14T10:49:16.969Z,100648.38
2019-02-14T10:51:46.284Z,100645.66
2019-02-14T10:54:14.914Z,100651.50
2019-02-14T10:56:43.414Z,100638.62
2019-02-14T10:59:11.939Z,100637.79
2019-02-14T11:01:40.450Z,100638.77
2019-02-14T11:04:09.197Z,100639.80
2019-02-14T11:06:38.512Z,100626.52
2019-02-14T11:09:07.968Z,100622.12
2019-02-14T11:11:37.266Z,100612.81
2019-02-14T11:14:06.599Z,100613.39
2019-02-14T11:16:35.917Z,100608.83
2019-02-14T11:19:05.374Z,100607.58
2019-02-14T11:21:33.894Z,100604.87
2019-02-14T11:24:02.510Z,100601.31
2019-02-14T11:26:31.839Z,100600.73
2019-02-14T11:29:01.180Z,100596.91
2019-02-14T11:31:30.510Z,100595.94
2019-02-14T11:33:59.827Z,100594.42
2019-02-14T11:36:29.136Z,100584.00
2019-02-14T11:38:58.465Z,100576.54
2019-02-14T11:41:26.983Z,100570.59
2019-02-14T11:43:56.402Z,100567.48
2019-02-14T11:46:24.818Z,100569.67
2019-02-14T11:48:53.448Z,100560.08
2019-02-14T11:51:22.801Z,100558.77
2019-02-14T11:53:52.130Z,100549.48
2019-02-14T11:56:21.466Z,100550.86
2019-02-14T11:58:50.780Z,100542.58
2019-02-14T12:01:20.107Z,100546.44
2019-02-14T12:03:49.422Z,100552.00
2019-02-14T12:06:18.053Z,100549.27
2019-02-14T12:08:57.691Z,100545.02
2019-02-14T12:11:35.754Z,100544.89
2019-02-14T12:14:05.125Z,100539.73
2019-02-14T12:16:34.444Z,100543.98
2019-02-14T12:19:03.752Z,100558.70
2019-02-14T12:21:33.088Z,100552.32
2019-02-14T12:24:02.404Z,100545.53
2019-02-14T12:26:31.734Z,100547.12
2019-02-14T12:29:01.052Z,100548.67
2019-02-14T12:31:30.366Z,100542.13
2019-02-14T12:33:59.014Z,100537.70
2019-02-14T12:36:27.669Z,100546.92
2019-02-14T12:38:56.281Z,100532.03
2019-02-14T12:41:25.174Z,100535.41
2019-02-14T12:43:53.679Z,100539.10
2019-02-14T12:46:22.349Z,100542.96
2019-02-14T12:48:51.671Z,100539.10
2019-02-14T12:51:21.018Z,100545.09
2019-02-14T12:53:49.844Z,100534.28
2019-02-14T12:56:18.465Z,100536.41
2019-02-14T12:58:47.788Z,100524.13
2019-02-14T13:01:17.122Z,100531.50
2019-02-14T13:03:46.432Z,100515.76
2019-02-14T13:06:15.773Z,100518.22
2019-02-14T13:08:45.143Z,100521.09
2019-02-14T13:11:13.700Z,100519.79
2019-02-14T13:13:42.266Z,100517.30
2019-02-14T13:16:10.861Z,100510.23
2019-02-14T13:18:39.377Z,100511.56
2019-02-14T13:21:08.722Z,100518.78
2019-02-14T13:23:38.069Z,100518.33
2019-02-14T13:26:07.380Z,100523.59
2019-02-14T13:28:36.711Z,100522.66
2019-02-14T13:31:06.124Z,100522.27
2019-02-14T13:33:35.505Z,100518.33
2019-02-14T13:36:06.283Z,100524.81
2019-02-14T13:38:35.027Z,100518.28
2019-02-14T13:41:04.555Z,100517.27
2019-02-14T13:43:33.181Z,100520.75
2019-02-14T13:46:01.820Z,100522.78
2019-02-14T13:48:31.246Z,100524.64
2019-02-14T13:51:00.569Z,100520.16
2019-02-14T13:53:29.892Z,100523.45
2019-02-14T13:55:59.214Z,100522.22
2019-02-14T13:58:28.651Z,100514.80
2019-02-14T14:00:58.155Z,100514.08
2019-02-14T14:03:27.686Z,100515.02
2019-02-14T14:05:57.010Z,100512.83
2019-02-14T14:08:26.079Z,100511.95
2019-02-14T14:10:55.424Z,100513.27
2019-02-14T14:13:24.133Z,100504.03
2019-02-14T14:15:53.505Z,100507.20
2019-02-14T14:18:22.069Z,100513.02
2019-02-14T14:20:50.910Z,100507.30
2019-02-14T14:23:19.979Z,100509.08
2019-02-14T14:25:48.635Z,100510.45
2019-02-14T14:28:17.372Z,100508.34
2019-02-14T14:30:46.221Z,100503.22
2019-02-14T14:33:14.959Z,100505.64
2019-02-14T14:35:43.790Z,100503.59
2019-02-14T14:38:12.626Z,100506.97
2019-02-14T14:40:41.974Z,100504.42
2019-02-14T14:43:32.747Z,100502.88
2019-02-14T14:46:23.682Z,100503.30
2019-02-14T14:48:52.318Z,100497.73
2019-02-14T14:51:21.258Z,100497.36
2019-02-14T14:53:49.935Z,100490.77
2019-02-14T14:56:19.264Z,100488.71
2019-02-14T14:58:48.261Z,100489.19
2019-02-14T15:01:16.805Z,100500.98
2019-02-14T15:03:45.340Z,100492.31
2019-02-14T15:06:13.986Z,100488.81
2019-02-14T15:08:42.895Z,100495.80
2019-02-14T15:11:11.753Z,100489.30
2019-02-14T15:13:40.684Z,100493.25
2019-02-14T15:16:09.723Z,100488.58
2019-02-14T15:18:38.259Z,100496.06
2019-02-14T15:21:07.010Z,100492.62
2019-02-14T15:23:35.572Z,100503.15
2019-02-14T15:26:04.201Z,100502.66
2019-02-14T15:28:32.934Z,100495.43
2019-02-14T15:31:01.579Z,100500.41
2019-02-14T15:33:30.212Z,100502.37
2019-02-14T15:35:58.894Z,100500.59
2019-02-14T15:38:27.451Z,100498.84
2019-02-14T15:40:56.173Z,100497.09
2019-02-14T15:43:24.827Z,100501.52
2019-02-14T15:45:53.849Z,100499.81
2019-02-14T15:48:22.598Z,100497.58
2019-02-14T15:50:53.691Z,100507.47
2019-02-14T15:53:21.729Z,100504.33
2019-02-14T15:55:50.560Z,100505.37
2019-02-14T15:58:19.302Z,100507.17
2019-02-14T16:00:50.001Z,100507.17
2019-02-14T16:03:19.603Z,100507.63
2019-02-14T16:05:48.327Z,100498.44
2019-02-14T16:08:17.166Z,100500.96
2019-02-14T16:10:45.877Z,100499.26
2019-02-14T16:13:14.809Z,100503.70
2019-02-14T16:15:43.430Z,100506.98
2019-02-14T16:18:12.171Z,100507.63
2019-02-14T16:20:42.490Z,100504.52
2019-02-14T16:23:31.762Z,100504.72
2019-02-14T16:26:00.504Z,100507.44
2019-02-14T16:31:32.315Z,100501.74
2019-02-14T16:34:01.676Z,100503.31
2019-02-14T16:36:32.465Z,100510.97
2019-02-14T16:39:20.719Z,100509.44
2019-02-14T16:42:09.500Z,100510.31
2019-02-14T16:44:38.818Z,100511.45
2019-02-14T16:47:07.442Z,100512.77
2019-02-14T16:49:35.958Z,100510.52
2019-02-14T16:52:05.286Z,100507.41
2019-02-14T16:54:35.691Z,100505.83
2019-02-14T16:57:23.831Z,100502.61
2019-02-14T16:59:53.137Z,100505.01
2019-02-14T17:02:22.481Z,100501.59
2019-02-14T17:04:51.838Z,100507.80
2019-02-14T17:07:21.188Z,100508.95
2019-02-14T17:09:50.507Z,100510.26
2019-02-14T17:12:19.847Z,100507.52
2019-02-14T17:14:48.602Z,100508.77
2019-02-14T17:17:17.387Z,100511.88
2019-02-14T17:19:46.766Z,100506.59
2019-02-14T17:22:16.132Z,100510.24
2019-02-14T17:24:45.506Z,100515.27
2019-02-14T17:27:14.827Z,100510.84
2019-02-14T17:29:44.189Z,100509.64
2019-02-14T17:32:13.541Z,100505.66
2019-02-14T17:34:42.864Z,100505.78
2019-02-14T17:37:11.377Z,100500.80
2019-02-14T17:39:40.707Z,100499.34
2019-02-14T17:42:10.052Z,100498.47
2019-02-14T17:44:38.617Z,100494.22
2019-02-14T17:47:07.970Z,100493.84
2019-02-14T17:49:37.294Z,100487.36
2019-02-14T17:52:06.629Z,100487.24
2019-02-14T17:54:35.952Z,100478.55
2019-02-14T17:57:05.285Z,100481.74
2019-02-14T17:59:34.012Z,100484.44
2019-02-14T18:02:05.357Z,100482.08
2019-02-14T18:04:36.003Z,100475.86
2019-02-14T18:07:24.352Z,100470.52
2019-02-14T18:12:56.723Z,100469.05
2019-02-14T18:15:29.890Z,100474.51
2019-02-14T18:21:02.318Z,100467.97
2019-02-14T18:23:30.954Z,100465.57
2019-02-14T18:26:00.282Z,100470.75
2019-02-14T18:28:29.606Z,100457.30
2019-02-14T18:30:58.935Z,100457.45
2019-02-14T18:33:28.290Z,100462.95
2019-02-14T18:35:57.704Z,100467.36
2019-02-14T18:38:27.031Z,100464.87
2019-02-14T18:41:03.799Z,100465.73
2019-02-14T18:43:45.933Z,100467.13
2019-02-14T18:48:59.210Z,100467.77
2019-02-14T18:51:28.545Z,100462.06
2019-02-14T18:53:57.923Z,100463.95
2019-02-14T18:56:27.248Z,100463.47
2019-02-14T18:58:56.582Z,100468.27
2019-02-14T19:01:25.151Z,100467.34
2019-02-14T19:03:54.497Z,100467.39
2019-02-14T19:06:23.119Z,100467.55
2019-02-14T19:08:52.487Z,100475.77
2019-02-14T19:11:21.805Z,100478.19
2019-02-14T19:13:51.127Z,100480.47
2019-02-14T19:16:20.461Z,100474.36
2019-02-14T19:18:49.779Z,100474.91
2019-02-14T19:21:19.092Z,100475.82
2019-02-14T19:23:48.422Z,100472.39
2019-02-14T19:26:16.960Z,100469.14
2019-02-14T19:28:46.322Z,100472.68
2019-02-14T19:31:15.762Z,100473.20
2019-02-14T19:33:45.106Z,100477.75
2019-02-14T19:36:13.619Z,100482.45
2019-02-14T19:38:42.973Z,100479.36
2019-02-14T19:41:12.276Z,100486.38
2019-02-14T19:43:41.738Z,100482.34
2019-02-14T19:46:11.075Z,100485.21
2019-02-14T19:48:39.634Z,100489.51
2019-02-14T19:51:08.274Z,100489.75
2019-02-14T19:53:37.634Z,100490.28
2019-02-14T19:56:06.958Z,100491.36
2019-02-14T19:58:36.291Z,100487.77
2019-02-14T20:01:05.790Z,100487.53
2019-02-14T20:03:35.095Z,100492.86
2019-02-14T20:06:04.459Z,100487.92
2019-02-14T20:08:33.778Z,100490.10
2019-02-14T20:11:02.425Z,100491.78
2019-02-14T20:13:31.853Z,100491.49
2019-02-14T20:16:00.376Z,100497.20
2019-02-14T20:18:29.015Z,100496.58
2019-02-14T20:20:58.323Z,100497.93
2019-02-14T20:23:27.646Z,100491.97
2019-02-14T20:25:57.111Z,100487.72
2019-02-14T20:28:26.450Z,100489.02
2019-02-14T20:30:55.786Z,100484.19
2019-02-14T20:33:25.115Z,100492.89
2019-02-14T20:35:54.427Z,100488.30
2019-02-14T20:38:23.791Z,100493.81
2019-02-14T20:40:52.420Z,100487.52
2019-02-14T20:43:21.946Z,100490.47
2019-02-14T20:45:51.380Z,100487.80
2019-02-14T20:48:19.899Z,100492.30
2019-02-14T20:50:49.243Z,100496.56
2019-02-14T20:53:18.577Z,100498.95
2019-02-14T20:55:47.917Z,100496.73
2019-02-14T20:58:17.280Z,100490.12
2019-02-14T21:00:45.805Z,100493.95
2019-02-14T21:03:15.130Z,100491.95
2019-02-14T21:05:43.670Z,100498.56
2019-02-14T21:08:12.973Z,100493.30
2019-02-14T21:10:42.300Z,100490.59
2019-02-14T21:13:11.731Z,100489.68
2019-02-14T21:15:41.033Z,100495.18
2019-02-14T21:18:10.339Z,100499.66
2019-02-14T21:20:38.882Z,100497.35
2019-02-14T21:23:08.243Z,100493.21
2019-02-14T21:25:37.621Z,100495.86
2019-02-14T21:28:06.191Z,100492.98
2019-02-14T21:30:36.413Z,100495.89
2019-02-14T21:33:24.774Z,100496.71
2019-02-14T21:38:55.700Z,100491.06
2019-02-14T21:41:24.345Z,100484.37
2019-02-14T21:46:56.056Z,100482.59
2019-02-14T21:49:24.590Z,100478.63
2019-02-14T21:51:53.898Z,100476.88
2019-02-14T21:54:23.219Z,100471.80
2019-02-14T21:59:55.364Z,100471.28
2019-02-14T22:02:24.770Z,100470.59
2019-02-14T22:04:54.082Z,100463.77
2019-02-14T22:07:23.477Z,100463.42
2019-02-14T22:09:52.089Z,100473.63
2019-02-14T22:12:38.230Z,100466.31
2019-02-14T22:15:11.914Z,100466.75
2019-02-14T22:20:43.554Z,100468.14
2019-02-14T22:23:12.980Z,100479.98
2019-02-14T22:25:42.298Z,100479.67
2019-02-14T22:28:10.909Z,100475.13
2019-02-14T22:30:40.229Z,100471.14
2019-02-14T22:33:08.749Z,100479.00
2019-02-14T22:35:37.330Z,100477.70
2019-02-14T22:41:07.935Z,100480.23
2019-02-14T22:43:37.246Z,100484.89
2019-02-14T22:46:05.786Z,100475.76
2019-02-14T22:48:34.299Z,100476.04
2019-02-14T22:51:02.837Z,100486.00
2019-02-14T22:53:31.374Z,100475.17
2019-02-14T22:55:59.790Z,100481.33
2019-02-14T22:58:29.126Z,100478.97
2019-02-14T23:04:01.140Z,100483.78
2019-02-14T23:06:41.968Z,100481.09
2019-02-14T23:09:10.626Z,100488.45
2019-02-14T23:11:39.942Z,100487.14
2019-02-14T23:14:09.270Z,100488.97
2019-02-14T23:19:40.115Z,100485.37
2019-02-14T23:25:10.500Z,100491.53
2019-02-14T23:27:39.809Z,100486.23
2019-02-14T23:30:08.514Z,100485.80
2019-02-14T23:32:37.338Z,100490.27
2019-02-14T23:35:06.807Z,100483.34
2019-02-14T23:37:36.113Z,100480.67
2019-02-14T23:43:07.464Z,100483.43
2019-02-14T23:48:39.330Z,100491.37
2019-02-14T23:51:07.826Z,100499.27
2019-02-14T23:53:36.362Z,100489.20
2019-02-14T23:59:07.296Z,100487.56
